sensor_id;sensor_type;location;lat;lon;timestamp;P1;durP1;ratioP1;P2;durP2;ratioP2
39454;SDS011;25155;41.890;23.446;2024-01-15T00:01:23;16.40;;;9.70;;
39454;SDS011;25155;41.890;23.446;2024-01-15T00:03:50;15.82;;;9.15;;
39454;SDS011;25155;41.890;23.446;2024-01-15T00:06:17;21.48;;;12.95;;
39454;SDS011;25155;41.890;23.446;2024-01-15T00:08:44;17.73;;;11.18;;
39454;SDS011;25155;41.890;23.446;2024-01-15T00:11:11;18.40;;;10.85;;
39454;SDS011;25155;41.890;23.446;2024-01-15T00:13:39;15.23;;;9.73;;
39454;SDS011;25155;41.890;23.446;2024-01-15T00:16:06;18.77;;;11.20;;
39454;SDS011;25155;41.890;23.446;2024-01-15T00:18:35;25.35;;;15.35;;
39454;SDS011;25155;41.890;23.446;2024-01-15T00:21:02;37.05;;;24.15;;
39454;SDS011;25155;41.890;23.446;2024-01-15T00:23:30;39.60;;;24.15;;
39454;SDS011;25155;41.890;23.446;2024-01-15T00:25:57;31.13;;;18.65;;
39454;SDS011;25155;41.890;23.446;2024-01-15T00:28:24;26.45;;;16.02;;
39454;SDS011;25155;41.890;23.446;2024-01-15T00:30:52;26.00;;;15.15;;
39454;SDS011;25155;41.890;23.446;2024-01-15T00:33:19;36.30;;;20.60;;
39454;SDS011;25155;41.890;23.446;2024-01-15T00:35:47;29.77;;;16.92;;
39454;SDS011;25155;41.890;23.446;2024-01-15T00:38:15;26.02;;;15.38;;
39454;SDS011;25155;41.890;23.446;2024-01-15T00:40:42;23.15;;;14.18;;
39454;SDS011;25155;41.890;23.446;2024-01-15T00:43:09;30.85;;;18.08;;
39454;SDS011;25155;41.890;23.446;2024-01-15T00:45:37;27.25;;;15.60;;
39454;SDS011;25155;41.890;23.446;2024-01-15T00:48:04;22.88;;;13.45;;
39454;SDS011;25155;41.890;23.446;2024-01-15T00:50:32;23.35;;;13.40;;
39454;SDS011;25155;41.890;23.446;2024-01-15T00:53:01;25.40;;;13.82;;
39454;SDS011;25155;41.890;23.446;2024-01-15T00:55:28;17.95;;;10.63;;
39454;SDS011;25155;41.890;23.446;2024-01-15T00:57:55;24.17;;;14.15;;
39454;SDS011;25155;41.890;23.446;2024-01-15T01:00:22;22.23;;;13.55;;
39454;SDS011;25155;41.890;23.446;2024-01-15T01:02:50;29.00;;;16.55;;
39454;SDS011;25155;41.890;23.446;2024-01-15T01:05:17;28.40;;;16.27;;
39454;SDS011;25155;41.890;23.446;2024-01-15T01:07:44;24.48;;;14.55;;
39454;SDS011;25155;41.890;23.446;2024-01-15T01:10:14;26.20;;;15.43;;
39454;SDS011;25155;41.890;23.446;2024-01-15T01:12:42;23.70;;;14.33;;
39454;SDS011;25155;41.890;23.446;2024-01-15T01:15:09;28.35;;;16.58;;
39454;SDS011;25155;41.890;23.446;2024-01-15T01:17:36;37.10;;;21.83;;
39454;SDS011;25155;41.890;23.446;2024-01-15T01:20:04;43.08;;;24.63;;
39454;SDS011;25155;41.890;23.446;2024-01-15T01:22:33;33.53;;;19.63;;
39454;SDS011;25155;41.890;23.446;2024-01-15T01:25:00;33.47;;;18.48;;
39454;SDS011;25155;41.890;23.446;2024-01-15T01:27:29;36.13;;;20.45;;
39454;SDS011;25155;41.890;23.446;2024-01-15T01:29:56;41.53;;;21.40;;
39454;SDS011;25155;41.890;23.446;2024-01-15T01:32:24;63.95;;;33.65;;
39454;SDS011;25155;41.890;23.446;2024-01-15T01:34:51;61.00;;;34.55;;
39454;SDS011;25155;41.890;23.446;2024-01-15T01:37:18;65.53;;;35.20;;
39454;SDS011;25155;41.890;23.446;2024-01-15T01:39:45;55.50;;;31.45;;
39454;SDS011;25155;41.890;23.446;2024-01-15T01:42:13;56.78;;;32.30;;
39454;SDS011;25155;41.890;23.446;2024-01-15T01:44:41;49.15;;;27.45;;
39454;SDS011;25155;41.890;23.446;2024-01-15T01:47:09;50.13;;;27.40;;
39454;SDS011;25155;41.890;23.446;2024-01-15T01:49:36;52.40;;;28.33;;
39454;SDS011;25155;41.890;23.446;2024-01-15T01:52:05;56.70;;;31.08;;
39454;SDS011;25155;41.890;23.446;2024-01-15T01:54:34;50.42;;;28.48;;
39454;SDS011;25155;41.890;23.446;2024-01-15T01:57:04;50.00;;;26.92;;
39454;SDS011;25155;41.890;23.446;2024-01-15T01:59:32;54.38;;;29.58;;
39454;SDS011;25155;41.890;23.446;2024-01-15T02:02:03;46.42;;;27.75;;
39454;SDS011;25155;41.890;23.446;2024-01-15T02:04:30;49.83;;;28.80;;
39454;SDS011;25155;41.890;23.446;2024-01-15T02:06:59;53.88;;;31.27;;
39454;SDS011;25155;41.890;23.446;2024-01-15T02:09:26;49.85;;;27.10;;
39454;SDS011;25155;41.890;23.446;2024-01-15T02:11:53;34.47;;;20.52;;
39454;SDS011;25155;41.890;23.446;2024-01-15T02:14:21;29.33;;;17.83;;
39454;SDS011;25155;41.890;23.446;2024-01-15T02:16:48;25.77;;;15.20;;
39454;SDS011;25155;41.890;23.446;2024-01-15T02:19:17;39.55;;;23.48;;
39454;SDS011;25155;41.890;23.446;2024-01-15T02:21:45;38.78;;;22.60;;
39454;SDS011;25155;41.890;23.446;2024-01-15T02:24:13;51.50;;;29.63;;
39454;SDS011;25155;41.890;23.446;2024-01-15T02:26:40;43.58;;;24.58;;
39454;SDS011;25155;41.890;23.446;2024-01-15T02:29:08;39.50;;;21.88;;
39454;SDS011;25155;41.890;23.446;2024-01-15T02:31:37;43.38;;;25.75;;
39454;SDS011;25155;41.890;23.446;2024-01-15T02:34:04;41.28;;;24.35;;
39454;SDS011;25155;41.890;23.446;2024-01-15T02:36:31;43.75;;;23.45;;
39454;SDS011;25155;41.890;23.446;2024-01-15T02:38:59;35.40;;;20.90;;
39454;SDS011;25155;41.890;23.446;2024-01-15T02:41:27;30.55;;;18.05;;
39454;SDS011;25155;41.890;23.446;2024-01-15T02:43:54;31.27;;;17.75;;
39454;SDS011;25155;41.890;23.446;2024-01-15T02:46:22;25.92;;;15.25;;
39454;SDS011;25155;41.890;23.446;2024-01-15T02:48:49;27.00;;;15.75;;
39454;SDS011;25155;41.890;23.446;2024-01-15T02:51:17;30.33;;;16.90;;
39454;SDS011;25155;41.890;23.446;2024-01-15T02:53:44;28.60;;;17.30;;
39454;SDS011;25155;41.890;23.446;2024-01-15T02:56:11;31.83;;;18.27;;
39454;SDS011;25155;41.890;23.446;2024-01-15T02:58:40;26.83;;;14.73;;
39454;SDS011;25155;41.890;23.446;2024-01-15T03:01:08;21.88;;;13.50;;
39454;SDS011;25155;41.890;23.446;2024-01-15T03:03:35;22.05;;;13.32;;
39454;SDS011;25155;41.890;23.446;2024-01-15T03:06:02;26.30;;;15.98;;
39454;SDS011;25155;41.890;23.446;2024-01-15T03:08:29;30.55;;;17.75;;
39454;SDS011;25155;41.890;23.446;2024-01-15T03:10:57;28.80;;;17.67;;
39454;SDS011;25155;41.890;23.446;2024-01-15T03:13:24;29.60;;;17.70;;
39454;SDS011;25155;41.890;23.446;2024-01-15T03:15:53;31.40;;;18.40;;
39454;SDS011;25155;41.890;23.446;2024-01-15T03:18:20;28.73;;;17.40;;
39454;SDS011;25155;41.890;23.446;2024-01-15T03:20:47;35.20;;;20.83;;
39454;SDS011;25155;41.890;23.446;2024-01-15T03:23:15;27.25;;;17.15;;
39454;SDS011;25155;41.890;23.446;2024-01-15T03:25:42;24.08;;;15.43;;
39454;SDS011;25155;41.890;23.446;2024-01-15T03:28:09;26.75;;;14.93;;
39454;SDS011;25155;41.890;23.446;2024-01-15T03:30:37;26.00;;;16.08;;
39454;SDS011;25155;41.890;23.446;2024-01-15T03:33:06;22.98;;;13.75;;
39454;SDS011;25155;41.890;23.446;2024-01-15T03:35:34;23.63;;;13.75;;
39454;SDS011;25155;41.890;23.446;2024-01-15T03:38:01;27.13;;;14.93;;
39454;SDS011;25155;41.890;23.446;2024-01-15T03:40:28;25.80;;;15.85;;
39454;SDS011;25155;41.890;23.446;2024-01-15T03:42:55;31.73;;;18.67;;
39454;SDS011;25155;41.890;23.446;2024-01-15T03:45:22;25.98;;;16.52;;
39454;SDS011;25155;41.890;23.446;2024-01-15T03:47:49;26.27;;;15.57;;
39454;SDS011;25155;41.890;23.446;2024-01-15T03:50:18;26.70;;;15.73;;
39454;SDS011;25155;41.890;23.446;2024-01-15T03:52:45;22.35;;;13.13;;
39454;SDS011;25155;41.890;23.446;2024-01-15T03:55:14;21.88;;;13.63;;
39454;SDS011;25155;41.890;23.446;2024-01-15T03:57:41;24.25;;;14.27;;
39454;SDS011;25155;41.890;23.446;2024-01-15T04:00:09;19.65;;;12.35;;
39454;SDS011;25155;41.890;23.446;2024-01-15T04:05:06;19.67;;;11.90;;
39454;SDS011;25155;41.890;23.446;2024-01-15T04:07:35;19.13;;;11.73;;
39454;SDS011;25155;41.890;23.446;2024-01-15T04:10:03;27.50;;;16.45;;
39454;SDS011;25155;41.890;23.446;2024-01-15T04:12:31;27.95;;;17.33;;
39454;SDS011;25155;41.890;23.446;2024-01-15T04:14:58;23.70;;;14.88;;
39454;SDS011;25155;41.890;23.446;2024-01-15T04:17:26;20.77;;;12.73;;
39454;SDS011;25155;41.890;23.446;2024-01-15T04:19:54;23.50;;;13.90;;
39454;SDS011;25155;41.890;23.446;2024-01-15T04:22:22;18.90;;;11.77;;
39454;SDS011;25155;41.890;23.446;2024-01-15T04:24:51;17.95;;;10.75;;
39454;SDS011;25155;41.890;23.446;2024-01-15T04:27:18;21.05;;;11.70;;
39454;SDS011;25155;41.890;23.446;2024-01-15T04:29:45;18.30;;;10.90;;
39454;SDS011;25155;41.890;23.446;2024-01-15T04:32:12;20.65;;;11.45;;
39454;SDS011;25155;41.890;23.446;2024-01-15T04:34:39;21.52;;;12.57;;
39454;SDS011;25155;41.890;23.446;2024-01-15T04:37:07;22.52;;;12.75;;
39454;SDS011;25155;41.890;23.446;2024-01-15T04:39:34;21.75;;;13.60;;
39454;SDS011;25155;41.890;23.446;2024-01-15T04:42:03;25.42;;;14.68;;
39454;SDS011;25155;41.890;23.446;2024-01-15T04:44:30;25.83;;;14.90;;
39454;SDS011;25155;41.890;23.446;2024-01-15T04:46:58;22.95;;;14.40;;
39454;SDS011;25155;41.890;23.446;2024-01-15T04:49:25;25.80;;;15.48;;
39454;SDS011;25155;41.890;23.446;2024-01-15T04:51:55;22.98;;;13.65;;
39454;SDS011;25155;41.890;23.446;2024-01-15T04:54:22;20.75;;;12.15;;
39454;SDS011;25155;41.890;23.446;2024-01-15T04:56:49;18.95;;;11.55;;
39454;SDS011;25155;41.890;23.446;2024-01-15T04:59:19;20.55;;;12.27;;
39454;SDS011;25155;41.890;23.446;2024-01-15T05:02:03;21.88;;;13.00;;
39454;SDS011;25155;41.890;23.446;2024-01-15T05:04:31;18.70;;;11.75;;
39454;SDS011;25155;41.890;23.446;2024-01-15T05:06:58;25.15;;;15.00;;
39454;SDS011;25155;41.890;23.446;2024-01-15T05:09:25;21.75;;;13.38;;
39454;SDS011;25155;41.890;23.446;2024-01-15T05:11:54;19.30;;;11.88;;
39454;SDS011;25155;41.890;23.446;2024-01-15T05:14:22;33.83;;;17.63;;
39454;SDS011;25155;41.890;23.446;2024-01-15T05:16:50;52.85;;;28.73;;
39454;SDS011;25155;41.890;23.446;2024-01-15T05:19:17;63.08;;;36.08;;
39454;SDS011;25155;41.890;23.446;2024-01-15T05:21:45;79.97;;;45.03;;
39454;SDS011;25155;41.890;23.446;2024-01-15T05:24:12;111.90;;;58.97;;
39454;SDS011;25155;41.890;23.446;2024-01-15T05:26:39;123.72;;;67.18;;
39454;SDS011;25155;41.890;23.446;2024-01-15T05:29:07;128.73;;;66.80;;
39454;SDS011;25155;41.890;23.446;2024-01-15T05:31:36;114.80;;;61.78;;
39454;SDS011;25155;41.890;23.446;2024-01-15T05:34:03;88.03;;;48.05;;
39454;SDS011;25155;41.890;23.446;2024-01-15T05:36:31;77.18;;;42.13;;
39454;SDS011;25155;41.890;23.446;2024-01-15T05:38:58;65.68;;;37.65;;
39454;SDS011;25155;41.890;23.446;2024-01-15T05:41:25;46.75;;;27.27;;
39454;SDS011;25155;41.890;23.446;2024-01-15T05:43:52;33.22;;;19.75;;
39454;SDS011;25155;41.890;23.446;2024-01-15T05:46:20;35.92;;;20.40;;
39454;SDS011;25155;41.890;23.446;2024-01-15T05:48:48;34.53;;;20.08;;
39454;SDS011;25155;41.890;23.446;2024-01-15T05:51:16;55.50;;;32.03;;
39454;SDS011;25155;41.890;23.446;2024-01-15T05:53:42;49.17;;;26.80;;
39454;SDS011;25155;41.890;23.446;2024-01-15T05:56:10;66.72;;;36.97;;
39454;SDS011;25155;41.890;23.446;2024-01-15T05:58:37;73.95;;;42.05;;
39454;SDS011;25155;41.890;23.446;2024-01-15T06:01:05;65.50;;;37.20;;
39454;SDS011;25155;41.890;23.446;2024-01-15T06:03:33;65.10;;;37.67;;
39454;SDS011;25155;41.890;23.446;2024-01-15T06:06:02;80.40;;;43.15;;
39454;SDS011;25155;41.890;23.446;2024-01-15T06:08:29;87.18;;;46.80;;
39454;SDS011;25155;41.890;23.446;2024-01-15T06:10:56;74.70;;;41.15;;
39454;SDS011;25155;41.890;23.446;2024-01-15T06:13:24;64.38;;;35.40;;
39454;SDS011;25155;41.890;23.446;2024-01-15T06:15:51;61.28;;;35.10;;
39454;SDS011;25155;41.890;23.446;2024-01-15T06:18:18;77.53;;;41.55;;
39454;SDS011;25155;41.890;23.446;2024-01-15T06:20:45;78.20;;;43.67;;
39454;SDS011;25155;41.890;23.446;2024-01-15T06:23:14;86.78;;;48.72;;
39454;SDS011;25155;41.890;23.446;2024-01-15T06:25:42;95.53;;;53.17;;
39454;SDS011;25155;41.890;23.446;2024-01-15T06:28:09;97.65;;;56.15;;
39454;SDS011;25155;41.890;23.446;2024-01-15T06:30:36;92.35;;;51.03;;
39454;SDS011;25155;41.890;23.446;2024-01-15T06:33:04;82.90;;;47.28;;
39454;SDS011;25155;41.890;23.446;2024-01-15T06:35:31;111.43;;;58.20;;
39454;SDS011;25155;41.890;23.446;2024-01-15T06:37:59;100.93;;;55.25;;
39454;SDS011;25155;41.890;23.446;2024-01-15T06:40:28;97.28;;;52.90;;
39454;SDS011;25155;41.890;23.446;2024-01-15T06:42:55;98.40;;;54.47;;
39454;SDS011;25155;41.890;23.446;2024-01-15T06:45:23;87.43;;;48.03;;
39454;SDS011;25155;41.890;23.446;2024-01-15T06:47:50;83.85;;;45.70;;
39454;SDS011;25155;41.890;23.446;2024-01-15T06:50:17;88.32;;;48.35;;
39454;SDS011;25155;41.890;23.446;2024-01-15T06:52:45;125.32;;;67.57;;
39454;SDS011;25155;41.890;23.446;2024-01-15T06:55:12;159.35;;;79.70;;
39454;SDS011;25155;41.890;23.446;2024-01-15T06:57:41;151.13;;;76.30;;
39454;SDS011;25155;41.890;23.446;2024-01-15T07:00:08;204.80;;;113.88;;
39454;SDS011;25155;41.890;23.446;2024-01-15T07:02:37;237.80;;;131.27;;
39454;SDS011;25155;41.890;23.446;2024-01-15T07:05:04;257.05;;;143.10;;
39454;SDS011;25155;41.890;23.446;2024-01-15T07:07:32;210.45;;;118.15;;
39454;SDS011;25155;41.890;23.446;2024-01-15T07:09:59;208.73;;;114.18;;
39454;SDS011;25155;41.890;23.446;2024-01-15T07:12:27;146.63;;;79.88;;
39454;SDS011;25155;41.890;23.446;2024-01-15T07:14:56;127.90;;;70.20;;
39454;SDS011;25155;41.890;23.446;2024-01-15T07:17:24;146.30;;;78.45;;
39454;SDS011;25155;41.890;23.446;2024-01-15T07:19:51;151.00;;;82.68;;
39454;SDS011;25155;41.890;23.446;2024-01-15T07:22:18;143.95;;;78.80;;
39454;SDS011;25155;41.890;23.446;2024-01-15T07:24:45;105.80;;;57.97;;
39454;SDS011;25155;41.890;23.446;2024-01-15T07:27:12;102.75;;;56.17;;
39454;SDS011;25155;41.890;23.446;2024-01-15T07:29:39;89.18;;;49.92;;
39454;SDS011;25155;41.890;23.446;2024-01-15T07:32:09;78.63;;;43.85;;
39454;SDS011;25155;41.890;23.446;2024-01-15T07:34:37;106.55;;;58.95;;
39454;SDS011;25155;41.890;23.446;2024-01-15T07:37:04;123.20;;;70.45;;
39454;SDS011;25155;41.890;23.446;2024-01-15T07:39:32;126.95;;;74.45;;
39454;SDS011;25155;41.890;23.446;2024-01-15T07:42:01;144.75;;;80.80;;
39454;SDS011;25155;41.890;23.446;2024-01-15T07:44:29;246.73;;;138.82;;
39454;SDS011;25155;41.890;23.446;2024-01-15T07:46:56;228.50;;;131.88;;
39454;SDS011;25155;41.890;23.446;2024-01-15T07:49:24;183.38;;;109.28;;
39454;SDS011;25155;41.890;23.446;2024-01-15T07:51:51;231.25;;;137.38;;
39454;SDS011;25155;41.890;23.446;2024-01-15T07:54:19;236.70;;;140.88;;
39454;SDS011;25155;41.890;23.446;2024-01-15T07:56:55;232.85;;;138.82;;
39454;SDS011;25155;41.890;23.446;2024-01-15T07:59:23;233.98;;;136.80;;
39454;SDS011;25155;41.890;23.446;2024-01-15T08:01:51;182.80;;;107.45;;
39454;SDS011;25155;41.890;23.446;2024-01-15T08:04:18;145.30;;;87.53;;
39454;SDS011;25155;41.890;23.446;2024-01-15T08:06:47;135.50;;;80.03;;
39454;SDS011;25155;41.890;23.446;2024-01-15T08:09:14;177.93;;;106.05;;
39454;SDS011;25155;41.890;23.446;2024-01-15T08:11:41;167.75;;;95.80;;
39454;SDS011;25155;41.890;23.446;2024-01-15T08:14:09;138.80;;;81.53;;
39454;SDS011;25155;41.890;23.446;2024-01-15T08:16:37;185.52;;;112.25;;
39454;SDS011;25155;41.890;23.446;2024-01-15T08:19:04;192.55;;;117.45;;
39454;SDS011;25155;41.890;23.446;2024-01-15T08:21:31;169.38;;;99.55;;
39454;SDS011;25155;41.890;23.446;2024-01-15T08:24:01;152.23;;;93.38;;
39454;SDS011;25155;41.890;23.446;2024-01-15T08:26:29;140.05;;;85.45;;
39454;SDS011;25155;41.890;23.446;2024-01-15T08:28:57;155.57;;;96.28;;
39454;SDS011;25155;41.890;23.446;2024-01-15T08:31:24;144.43;;;85.97;;
39454;SDS011;25155;41.890;23.446;2024-01-15T08:33:53;116.22;;;66.95;;
39454;SDS011;25155;41.890;23.446;2024-01-15T08:36:21;125.20;;;73.93;;
39454;SDS011;25155;41.890;23.446;2024-01-15T08:38:49;105.30;;;65.10;;
39454;SDS011;25155;41.890;23.446;2024-01-15T08:41:18;86.05;;;52.47;;
39454;SDS011;25155;41.890;23.446;2024-01-15T08:43:45;81.95;;;50.72;;
39454;SDS011;25155;41.890;23.446;2024-01-15T08:46:12;105.72;;;63.53;;
39454;SDS011;25155;41.890;23.446;2024-01-15T08:48:40;85.82;;;52.53;;
39454;SDS011;25155;41.890;23.446;2024-01-15T08:51:07;125.75;;;75.82;;
39454;SDS011;25155;41.890;23.446;2024-01-15T08:53:34;164.73;;;95.65;;
39454;SDS011;25155;41.890;23.446;2024-01-15T08:56:01;198.98;;;117.68;;
39454;SDS011;25155;41.890;23.446;2024-01-15T08:58:31;209.93;;;123.47;;
39454;SDS011;25155;41.890;23.446;2024-01-15T09:00:58;177.75;;;107.82;;
39454;SDS011;25155;41.890;23.446;2024-01-15T09:03:25;137.75;;;83.03;;
39454;SDS011;25155;41.890;23.446;2024-01-15T09:05:53;130.27;;;79.97;;
39454;SDS011;25155;41.890;23.446;2024-01-15T09:08:20;126.47;;;80.10;;
39454;SDS011;25155;41.890;23.446;2024-01-15T09:10:47;161.73;;;102.63;;
39454;SDS011;25155;41.890;23.446;2024-01-15T09:13:14;127.05;;;80.80;;
39454;SDS011;25155;41.890;23.446;2024-01-15T09:15:43;143.07;;;86.03;;
39454;SDS011;25155;41.890;23.446;2024-01-15T09:18:10;129.52;;;75.43;;
39454;SDS011;25155;41.890;23.446;2024-01-15T09:20:37;126.13;;;73.47;;
39454;SDS011;25155;41.890;23.446;2024-01-15T09:23:05;100.32;;;57.38;;
39454;SDS011;25155;41.890;23.446;2024-01-15T09:25:32;82.88;;;50.30;;
39454;SDS011;25155;41.890;23.446;2024-01-15T09:27:59;97.47;;;60.42;;
39454;SDS011;25155;41.890;23.446;2024-01-15T09:30:27;90.70;;;55.17;;
39454;SDS011;25155;41.890;23.446;2024-01-15T09:32:56;73.50;;;45.17;;
39454;SDS011;25155;41.890;23.446;2024-01-15T09:35:23;98.07;;;59.67;;
39454;SDS011;25155;41.890;23.446;2024-01-15T09:37:50;103.60;;;62.50;;
39454;SDS011;25155;41.890;23.446;2024-01-15T09:40:18;107.78;;;67.40;;
39454;SDS011;25155;41.890;23.446;2024-01-15T09:42:47;103.28;;;62.00;;
39454;SDS011;25155;41.890;23.446;2024-01-15T09:45:15;97.38;;;61.45;;
39454;SDS011;25155;41.890;23.446;2024-01-15T09:47:43;100.78;;;59.58;;
39454;SDS011;25155;41.890;23.446;2024-01-15T09:50:12;86.32;;;51.05;;
39454;SDS011;25155;41.890;23.446;2024-01-15T09:52:39;69.90;;;43.72;;
39454;SDS011;25155;41.890;23.446;2024-01-15T09:55:09;85.88;;;52.95;;
39454;SDS011;25155;41.890;23.446;2024-01-15T09:57:37;81.82;;;48.83;;
39454;SDS011;25155;41.890;23.446;2024-01-15T10:00:07;73.53;;;46.35;;
39454;SDS011;25155;41.890;23.446;2024-01-15T10:02:36;67.00;;;40.55;;
39454;SDS011;25155;41.890;23.446;2024-01-15T10:05:03;56.08;;;35.67;;
39454;SDS011;25155;41.890;23.446;2024-01-15T10:07:32;67.90;;;43.10;;
39454;SDS011;25155;41.890;23.446;2024-01-15T10:12:30;71.70;;;43.72;;
39454;SDS011;25155;41.890;23.446;2024-01-15T10:14:57;74.35;;;45.90;;
39454;SDS011;25155;41.890;23.446;2024-01-15T10:17:24;83.30;;;51.85;;
39454;SDS011;25155;41.890;23.446;2024-01-15T10:19:52;77.18;;;46.50;;
39454;SDS011;25155;41.890;23.446;2024-01-15T10:22:19;74.45;;;46.42;;
39454;SDS011;25155;41.890;23.446;2024-01-15T10:24:48;59.90;;;37.42;;
39454;SDS011;25155;41.890;23.446;2024-01-15T10:27:15;62.88;;;39.85;;
39454;SDS011;25155;41.890;23.446;2024-01-15T10:29:42;77.95;;;48.13;;
39454;SDS011;25155;41.890;23.446;2024-01-15T10:32:10;82.90;;;50.85;;
39454;SDS011;25155;41.890;23.446;2024-01-15T10:34:38;80.47;;;48.60;;
39454;SDS011;25155;41.890;23.446;2024-01-15T10:37:07;99.53;;;61.75;;
39454;SDS011;25155;41.890;23.446;2024-01-15T10:39:34;101.68;;;60.95;;
39454;SDS011;25155;41.890;23.446;2024-01-15T10:42:04;98.47;;;61.45;;
39454;SDS011;25155;41.890;23.446;2024-01-15T10:44:32;96.18;;;60.90;;
39454;SDS011;25155;41.890;23.446;2024-01-15T10:46:59;99.68;;;63.67;;
39454;SDS011;25155;41.890;23.446;2024-01-15T10:49:27;107.63;;;66.38;;
39454;SDS011;25155;41.890;23.446;2024-01-15T10:51:55;107.43;;;64.57;;
39454;SDS011;25155;41.890;23.446;2024-01-15T10:54:23;89.88;;;56.15;;
39454;SDS011;25155;41.890;23.446;2024-01-15T10:56:50;81.63;;;48.67;;
39454;SDS011;25155;41.890;23.446;2024-01-15T10:59:21;84.25;;;52.67;;
39454;SDS011;25155;41.890;23.446;2024-01-15T11:01:49;71.20;;;44.67;;
39454;SDS011;25155;41.890;23.446;2024-01-15T11:04:18;80.93;;;49.50;;
39454;SDS011;25155;41.890;23.446;2024-01-15T11:06:47;82.70;;;50.78;;
39454;SDS011;25155;41.890;23.446;2024-01-15T11:09:16;76.32;;;47.70;;
39454;SDS011;25155;41.890;23.446;2024-01-15T11:11:44;71.97;;;45.85;;
39454;SDS011;25155;41.890;23.446;2024-01-15T11:17:02;59.15;;;38.63;;
39454;SDS011;25155;41.890;23.446;2024-01-15T11:19:37;56.33;;;35.58;;
39454;SDS011;25155;41.890;23.446;2024-01-15T11:22:06;46.75;;;27.77;;
39454;SDS011;25155;41.890;23.446;2024-01-15T11:24:35;36.28;;;23.30;;
39454;SDS011;25155;41.890;23.446;2024-01-15T11:27:04;35.63;;;22.48;;
39454;SDS011;25155;41.890;23.446;2024-01-15T11:29:32;48.28;;;30.13;;
39454;SDS011;25155;41.890;23.446;2024-01-15T11:32:03;47.05;;;29.77;;
39454;SDS011;25155;41.890;23.446;2024-01-15T11:37:27;33.72;;;22.20;;
39454;SDS011;25155;41.890;23.446;2024-01-15T11:39:56;36.80;;;22.67;;
39454;SDS011;25155;41.890;23.446;2024-01-15T11:42:29;39.58;;;23.23;;
39454;SDS011;25155;41.890;23.446;2024-01-15T11:44:57;37.42;;;22.55;;
39454;SDS011;25155;41.890;23.446;2024-01-15T11:50:34;32.42;;;21.27;;
39454;SDS011;25155;41.890;23.446;2024-01-15T11:53:06;42.47;;;21.25;;
39454;SDS011;25155;41.890;23.446;2024-01-15T11:55:41;32.90;;;19.58;;
39454;SDS011;25155;41.890;23.446;2024-01-15T11:58:11;25.55;;;16.00;;
39454;SDS011;25155;41.890;23.446;2024-01-15T12:00:40;27.20;;;16.52;;
39454;SDS011;25155;41.890;23.446;2024-01-15T12:03:09;27.05;;;16.98;;
39454;SDS011;25155;41.890;23.446;2024-01-15T12:05:37;25.05;;;15.93;;
39454;SDS011;25155;41.890;23.446;2024-01-15T12:08:04;23.85;;;14.95;;
39454;SDS011;25155;41.890;23.446;2024-01-15T12:10:36;21.00;;;13.52;;
39454;SDS011;25155;41.890;23.446;2024-01-15T12:13:07;20.05;;;12.30;;
39454;SDS011;25155;41.890;23.446;2024-01-15T12:15:37;21.63;;;12.70;;
39454;SDS011;25155;41.890;23.446;2024-01-15T12:18:09;23.13;;;14.77;;
39454;SDS011;25155;41.890;23.446;2024-01-15T12:20:39;23.00;;;13.57;;
39454;SDS011;25155;41.890;23.446;2024-01-15T12:23:07;23.23;;;15.27;;
39454;SDS011;25155;41.890;23.446;2024-01-15T12:25:35;29.95;;;17.92;;
39454;SDS011;25155;41.890;23.446;2024-01-15T12:28:02;27.55;;;15.88;;
39454;SDS011;25155;41.890;23.446;2024-01-15T12:30:30;22.88;;;13.98;;
39454;SDS011;25155;41.890;23.446;2024-01-15T12:33:00;22.20;;;13.40;;
39454;SDS011;25155;41.890;23.446;2024-01-15T12:35:31;17.48;;;11.85;;
39454;SDS011;25155;41.890;23.446;2024-01-15T12:37:59;24.38;;;14.18;;
39454;SDS011;25155;41.890;23.446;2024-01-15T12:40:28;22.38;;;14.32;;
39454;SDS011;25155;41.890;23.446;2024-01-15T12:42:57;21.30;;;13.23;;
39454;SDS011;25155;41.890;23.446;2024-01-15T12:45:24;20.42;;;12.80;;
39454;SDS011;25155;41.890;23.446;2024-01-15T12:47:52;22.77;;;13.80;;
39454;SDS011;25155;41.890;23.446;2024-01-15T12:50:23;22.10;;;14.30;;
39454;SDS011;25155;41.890;23.446;2024-01-15T12:52:52;22.25;;;12.73;;
39454;SDS011;25155;41.890;23.446;2024-01-15T12:55:19;19.27;;;12.48;;
39454;SDS011;25155;41.890;23.446;2024-01-15T12:57:47;15.95;;;10.13;;
39454;SDS011;25155;41.890;23.446;2024-01-15T13:00:15;13.98;;;8.65;;
39454;SDS011;25155;41.890;23.446;2024-01-15T13:02:42;19.30;;;11.35;;
39454;SDS011;25155;41.890;23.446;2024-01-15T13:05:10;18.60;;;10.98;;
39454;SDS011;25155;41.890;23.446;2024-01-15T13:07:38;17.83;;;11.82;;
39454;SDS011;25155;41.890;23.446;2024-01-15T13:10:07;18.55;;;11.82;;
39454;SDS011;25155;41.890;23.446;2024-01-15T13:12:35;16.65;;;9.77;;
39454;SDS011;25155;41.890;23.446;2024-01-15T13:15:02;14.60;;;9.18;;
39454;SDS011;25155;41.890;23.446;2024-01-15T13:17:29;15.77;;;10.70;;
39454;SDS011;25155;41.890;23.446;2024-01-15T13:19:57;16.45;;;10.43;;
39454;SDS011;25155;41.890;23.446;2024-01-15T13:22:24;16.38;;;10.00;;
39454;SDS011;25155;41.890;23.446;2024-01-15T13:24:57;18.05;;;11.52;;
39454;SDS011;25155;41.890;23.446;2024-01-15T13:27:27;20.95;;;12.35;;
39454;SDS011;25155;41.890;23.446;2024-01-15T13:29:54;20.60;;;12.25;;
39454;SDS011;25155;41.890;23.446;2024-01-15T13:32:22;25.00;;;15.40;;
39454;SDS011;25155;41.890;23.446;2024-01-15T13:34:52;28.33;;;19.23;;
39454;SDS011;25155;41.890;23.446;2024-01-15T13:37:19;39.97;;;24.63;;
39454;SDS011;25155;41.890;23.446;2024-01-15T13:39:47;39.05;;;25.00;;
39454;SDS011;25155;41.890;23.446;2024-01-15T13:42:14;34.75;;;22.90;;
39454;SDS011;25155;41.890;23.446;2024-01-15T13:44:42;31.73;;;21.75;;
39454;SDS011;25155;41.890;23.446;2024-01-15T13:47:09;28.50;;;18.77;;
39454;SDS011;25155;41.890;23.446;2024-01-15T13:49:36;36.45;;;23.42;;
39454;SDS011;25155;41.890;23.446;2024-01-15T13:52:04;47.10;;;29.52;;
39454;SDS011;25155;41.890;23.446;2024-01-15T13:54:31;40.92;;;26.65;;
39454;SDS011;25155;41.890;23.446;2024-01-15T13:56:58;34.60;;;22.83;;
39454;SDS011;25155;41.890;23.446;2024-01-15T13:59:26;31.33;;;19.92;;
39454;SDS011;25155;41.890;23.446;2024-01-15T14:01:55;29.98;;;19.17;;
39454;SDS011;25155;41.890;23.446;2024-01-15T14:04:22;37.10;;;24.35;;
39454;SDS011;25155;41.890;23.446;2024-01-15T14:06:49;38.03;;;23.27;;
39454;SDS011;25155;41.890;23.446;2024-01-15T14:09:16;40.53;;;23.85;;
39454;SDS011;25155;41.890;23.446;2024-01-15T14:11:44;58.70;;;33.08;;
39454;SDS011;25155;41.890;23.446;2024-01-15T14:14:11;64.60;;;39.83;;
39454;SDS011;25155;41.890;23.446;2024-01-15T14:16:39;92.45;;;52.60;;
39454;SDS011;25155;41.890;23.446;2024-01-15T14:19:07;115.60;;;66.95;;
39454;SDS011;25155;41.890;23.446;2024-01-15T14:21:35;107.28;;;62.72;;
39454;SDS011;25155;41.890;23.446;2024-01-15T14:24:04;119.38;;;74.15;;